Pagrindinis puslapis
METAR-TAF:

METAR-TAF

Oro uostai :

Monbetsu, Japonija

platuma: 44-15N, ilguma: 143-32E, Aukštis: 6 m

Dabartinis oras

Ataskaita buvo paskelbta 15 valandos ir 10 minutes, ne 07:00 UTC
Vėjas 4 kt iš Vakarų/Šiaurės Vakarų
Temperatūra -1°C
Drėgmė 100%
Slėgis 1017 hPa
Matomumas 10 km arba daugiau
Mažai debesys ne aukštis 1500 ft
Išsisklaidę debesys ne aukštis 2500 ft
Su prošvaistėmis

METAR: RJEB 290700Z 29004KT 9999 FEW015 SCT025 BKN/// M01/M01 Q1017

Laikas: 07:10 (22:10 UTC)


TAF: trūkstamas

Orai ataskaitas ir orų prognozės (METAR, TAF).

turimą stotys yra geltonos ir raudonos taškus žemėlapyje.

Perkelti pele per norėdami pamatyti stoties vardą.

Tada spustelėkite, norėdami matyti oro stebėjimo ir prognozės.

Norėdami pakeisti žemėlapį: spustelėkite ant žalios mygtukų su juodo kryžiaus žemyn,; žalią mygtuką su brūkšneliu, jei norite nutolinti; arba žalių rodyklių gretimoms žemėlapius.


METAR-TAF: